Time;durP1;ratioP1;P1;durP2;ratioP2;P2;SDS_P1;SDS_P2;PMS_P1;PMS_P2;Temp;Humidity;BMP_temperature;BMP_pressure;BME280_temperature;BME280_humidity;BME280_pressure;Samples;Min_cycle;Max_cycle;Signal;HPM_P1;HPM_P2
2022/09/01 00:01:47;;;;;;;;;;;;;;;16.12;100.00;98520.80;1692431;84;22597;-88
2022/09/01 00:04:15;;;;;;;;;;;;;;;16.12;100.00;98517.33;1718829;82;25947;-88
2022/09/01 00:06:44;;;;;;;;;;;;;;;16.21;100.00;98515.98;1720892;82;24438;-88
2022/09/01 00:09:14;;;;;;;;;;;;;;;16.27;100.00;98514.11;1724449;82;20252;-88
2022/09/01 00:11:48;;;;;;;;;;;;;;;16.30;100.00;98509.88;1717950;82;25389;-88
2022/09/01 00:14:24;;;;;;;;;;;;;;;16.37;100.00;98506.66;1718353;82;21993;-88
2022/09/01 00:17:00;;;;;;;;;;;;;;;16.26;100.00;98505.00;1724376;82;25957;-88
2022/09/01 00:19:28;;;;;;;;;;;;;;;16.24;100.00;98499.88;1721086;82;25194;-88
2022/09/01 00:21:58;;;;;;;;;;;;;;;16.31;100.00;98497.48;1717029;82;20452;-87
2022/09/01 00:24:24;;;;;;;;;;;;;;;16.35;100.00;98502.02;1718984;82;24817;-88
2022/09/01 00:26:54;;;;;;;;;;;;;;;16.32;100.00;98500.47;1724217;82;23702;-88
2022/09/01 00:29:20;;;;;;;;;;;;;;;16.24;100.00;98503.84;1723158;82;26225;-88
2022/09/01 00:31:48;;;;;;;;;;;;;;;16.17;100.00;98501.41;1720960;82;24411;-88
2022/09/01 00:34:16;;;;;;;;;;;;;;;16.11;100.00;98502.45;1729585;82;20284;-87
2022/09/01 00:36:47;;;;;;;;;;;;;;;15.94;100.00;98501.83;1720275;82;24718;-87
2022/09/01 00:39:14;;;;;;;;;;;;;;;15.75;100.00;98497.39;1721862;82;21986;-88
2022/09/01 00:41:43;;;;;;;;;;;;;;;15.59;100.00;98496.62;1723762;82;39809;-88
2022/09/01 00:44:22;;;;;;;;;;;;;;;15.50;100.00;98491.63;1714221;82;24796;-87
2022/09/01 00:46:56;;;;;;;;;;;;;;;15.45;100.00;98486.41;1725961;82;20273;-88
2022/09/01 00:49:25;;;;;;;;;;;;;;;15.42;100.00;98487.53;1718728;82;24976;-88
2022/09/01 00:51:54;;;;;;;;;;;;;;;15.35;100.00;98481.61;1722102;82;21919;-88
2022/09/01 00:54:22;;;;;;;;;;;;;;;15.27;100.00;98487.58;1724283;82;26058;-88
2022/09/01 00:56:48;;;;;;;;;;;;;;;15.21;100.00;98485.95;1725508;82;25176;-88
2022/09/01 00:59:21;;;;;;;;;;;;;;;15.13;100.00;98485.78;1721222;82;20191;-88
2022/09/01 01:01:53;;;;;;;;;;;;;;;15.02;100.00;98491.51;1721200;82;24912;-88
2022/09/01 01:04:19;;;;;;;;;;;;;;;14.93;100.00;98488.84;1723095;82;22598;-87
2022/09/01 01:06:48;;;;;;;;;;;;;;;14.89;100.00;98488.77;1724267;82;26147;-88
2022/09/01 01:09:16;;;;;;;;;;;;;;;14.87;100.00;98485.42;1721397;82;24441;-88
2022/09/01 01:11:47;;;;;;;;;;;;;;;14.85;100.00;98485.55;1699080;82;20205;-88
2022/09/01 01:14:16;;;;;;;;;;;;;;;14.90;100.00;98485.14;1722093;82;24734;-88
2022/09/01 01:16:44;;;;;;;;;;;;;;;15.06;100.00;98483.67;1725580;82;22204;-88
2022/09/01 01:23:00;;;;;;;;;;;;;;;15.26;100.00;98487.22;1714442;82;26632;-87
2022/09/01 01:24:30;;;;;;;;;;;;;;;15.45;100.00;98479.81;1713375;82;20140;-88
2022/09/01 01:26:57;;;;;;;;;;;;;;;15.45;100.00;98480.66;1726153;82;24773;-88
2022/09/01 01:29:23;;;;;;;;;;;;;;;15.54;100.00;98481.69;1724558;82;22051;-88
2022/09/01 01:31:52;;;;;;;;;;;;;;;15.56;100.00;98483.69;1725466;82;26122;-88
2022/09/01 01:34:19;;;;;;;;;;;;;;;15.56;100.00;98480.20;1721837;82;25289;-88
2022/09/01 01:36:49;;;;;;;;;;;;;;;15.52;100.00;98480.14;1723547;82;20222;-88
2022/09/01 01:39:17;;;;;;;;;;;;;;;15.38;100.00;98474.25;1726467;82;24736;-88
2022/09/01 01:41:47;;;;;;;;;;;;;;;15.27;100.00;98480.98;1723314;82;21983;-88
2022/09/01 01:44:13;;;;;;;;;;;;;;;15.18;100.00;98480.45;1726724;82;25990;-88
2022/09/01 01:46:46;;;;;;;;;;;;;;;15.13;100.00;98481.34;1727047;82;24499;-87
2022/09/01 01:49:18;;;;;;;;;;;;;;;15.17;100.00;98480.58;1723291;82;20227;-87
2022/09/01 01:51:41;;;;;;;;;;;;;;;15.18;100.00;98480.45;1727095;82;24851;-87
2022/09/01 01:54:08;;;;;;;;;;;;;;;15.23;100.00;98487.95;1718904;82;21991;-87
2022/09/01 01:56:37;;;;;;;;;;;;;;;15.20;100.00;98478.53;1729300;82;26019;-87
2022/09/01 01:59:06;;;;;;;;;;;;;;;15.17;100.00;98477.94;1723165;82;25351;-88
2022/09/01 02:01:33;;;;;;;;;;;;;;;15.16;100.00;98475.82;1722912;82;20615;-87
2022/09/01 02:04:03;;;;;;;;;;;;;;;15.09;100.00;98478.63;1720707;81;24739;-87
2022/09/01 02:06:30;;;;;;;;;;;;;;;15.03;100.00;98481.32;1724323;82;22010;-87
2022/09/01 02:09:00;;;;;;;;;;;;;;;14.97;100.00;98477.06;1728621;82;26430;-88
2022/09/01 02:11:36;;;;;;;;;;;;;;;14.93;100.00;98474.34;1726723;82;23974;-88
2022/09/01 02:14:00;;;;;;;;;;;;;;;15.02;100.00;98474.38;1721268;82;20242;-88
2022/09/01 02:16:28;;;;;;;;;;;;;;;15.19;100.00;98470.27;1728146;82;20817;-88
2022/09/01 02:19:02;;;;;;;;;;;;;;;15.29;100.00;98466.33;1723172;82;21935;-88
2022/09/01 02:21:28;;;;;;;;;;;;;;;15.37;100.00;98469.97;1717408;82;25970;-88
2022/09/01 02:24:03;;;;;;;;;;;;;;;15.28;100.00;98464.16;1727589;82;20921;-88
2022/09/01 02:26:41;;;;;;;;;;;;;;;15.27;100.00;98472.23;1723658;82;20222;-89
2022/09/01 02:29:09;;;;;;;;;;;;;;;15.23;100.00;98470.81;1727939;82;24955;-89
2022/09/01 02:31:39;;;;;;;;;;;;;;;15.22;100.00;98473.12;1728553;82;22250;-88
2022/09/01 02:34:12;;;;;;;;;;;;;;;15.12;100.00;98477.03;1721833;82;26824;-88
2022/09/01 02:36:47;;;;;;;;;;;;;;;15.01;100.00;98470.06;1719287;82;25055;-88
2022/09/01 02:39:15;;;;;;;;;;;;;;;15.10;100.00;98478.16;1722329;82;20185;-88
2022/09/01 02:41:43;;;;;;;;;;;;;;;15.16;100.00;98475.82;1725150;82;24813;-88
2022/09/01 02:44:13;;;;;;;;;;;;;;;15.21;100.00;98474.93;1724936;82;22292;-87
2022/09/01 02:46:42;;;;;;;;;;;;;;;15.23;100.00;98475.61;1728015;82;26156;-88
2022/09/01 02:49:18;;;;;;;;;;;;;;;15.30;100.00;98471.95;1722248;82;24478;-88
2022/09/01 02:51:46;;;;;;;;;;;;;;;15.36;100.00;98467.45;1721714;82;20219;-88
2022/09/01 02:54:23;;;;;;;;;;;;;;;15.38;100.00;98471.61;1720270;82;24806;-88
2022/09/01 02:56:49;;;;;;;;;;;;;;;15.40;100.00;98468.84;1713347;82;22558;-88
2022/09/01 02:59:21;;;;;;;;;;;;;;;15.38;100.00;98467.66;1728081;82;25984;-88
2022/09/01 03:01:51;;;;;;;;;;;;;;;15.33;100.00;98469.03;1725168;82;25207;-88
2022/09/01 03:04:21;;;;;;;;;;;;;;;15.34;100.00;98466.27;1722371;81;20508;-88
2022/09/01 03:06:49;;;;;;;;;;;;;;;15.38;100.00;98468.97;1725611;82;24908;-88
2022/09/01 03:09:17;;;;;;;;;;;;;;;15.27;100.00;98463.84;1724880;82;22010;-88
2022/09/01 03:11:44;;;;;;;;;;;;;;;15.02;100.00;98474.86;1725832;82;26815;-88
2022/09/01 03:14:11;;;;;;;;;;;;;;;14.80;100.00;98469.30;1725526;82;24428;-89
2022/09/01 03:16:38;;;;;;;;;;;;;;;14.83;100.00;98476.13;1728938;82;20229;-89
2022/09/01 03:19:07;;;;;;;;;;;;;;;14.73;100.00;98469.98;1726667;82;24689;-89
2022/09/01 03:21:42;;;;;;;;;;;;;;;14.62;100.00;98476.98;1723238;82;22163;-88
2022/09/01 03:24:07;;;;;;;;;;;;;;;14.54;100.00;98471.55;1729533;82;26005;-89
2022/09/01 03:26:35;;;;;;;;;;;;;;;14.63;100.00;98469.43;1726812;82;24440;-89
2022/09/01 03:29:03;;;;;;;;;;;;;;;14.67;100.00;98467.88;1729027;82;20501;-88
2022/09/01 03:31:44;;;;;;;;;;;;;;;14.80;100.00;98470.62;1722041;82;24738;-89
2022/09/01 03:34:11;;;;;;;;;;;;;;;14.79;100.00;98471.58;1726402;82;21980;-89
2022/09/01 03:36:48;;;;;;;;;;;;;;;14.80;100.00;98471.94;1726304;82;26004;-88
2022/09/01 03:39:08;;;;;;;;;;;;;;;14.68;100.00;98469.52;1725998;81;24645;-88
2022/09/01 03:41:36;;;;;;;;;;;;;;;14.64;100.00;98471.11;1721947;82;20615;-88
2022/09/01 03:44:10;;;;;;;;;;;;;;;14.71;100.00;98472.73;1724942;82;24735;-88
2022/09/01 03:46:42;;;;;;;;;;;;;;;14.77;100.00;98474.84;1724821;82;22928;-88
2022/09/01 03:49:14;;;;;;;;;;;;;;;14.85;100.00;98476.80;1721207;82;25984;-88
2022/09/01 03:51:37;;;;;;;;;;;;;;;14.91;100.00;98470.52;1719593;82;24415;-89
2022/09/01 03:54:04;;;;;;;;;;;;;;;14.98;100.00;98473.46;1729416;82;20580;-88
2022/09/01 03:56:30;;;;;;;;;;;;;;;15.03;100.00;98476.05;1724331;82;24802;-89
2022/09/01 03:58:59;;;;;;;;;;;;;;;15.07;100.00;98473.48;1722760;82;20882;-88
2022/09/01 04:01:32;;;;;;;;;;;;;;;15.08;100.00;98476.95;1725455;82;26078;-87
2022/09/01 04:04:06;;;;;;;;;;;;;;;15.01;100.00;98471.87;1718777;82;24448;-88
2022/09/01 04:06:31;;;;;;;;;;;;;;;14.93;100.00;98471.23;1716178;82;20232;-88
2022/09/01 04:09:01;;;;;;;;;;;;;;;14.82;100.00;98476.59;1715203;82;20787;-88
2022/09/01 04:11:27;;;;;;;;;;;;;;;14.68;100.00;98472.14;1699360;83;22813;-89
2022/09/01 04:13:55;;;;;;;;;;;;;;;14.68;100.00;98470.34;1699308;83;25552;-87
2022/09/01 04:19:23;;;;;;;;;;;;;;;14.86;100.00;98479.31;1700899;83;20235;-89
2022/09/01 04:21:55;;;;;;;;;;;;;;;14.93;100.00;98476.98;1677359;84;25493;-89
2022/09/01 04:24:26;;;;;;;;;;;;;;;14.92;100.00;98480.10;1679459;84;22063;-87
2022/09/01 04:26:53;;;;;;;;;;;;;;;14.86;100.00;98485.06;1699939;83;26065;-87
2022/09/01 04:29:26;;;;;;;;;;;;;;;14.79;100.00;98482.59;1696132;83;24426;-86
2022/09/01 04:31:52;;;;;;;;;;;;;;;14.60;100.00;98485.99;1703491;82;20220;-88
2022/09/01 04:34:23;;;;;;;;;;;;;;;14.41;100.00;98484.08;1695735;83;24729;-89
2022/09/01 04:36:47;;;;;;;;;;;;;;;14.24;100.00;98485.46;1699879;83;22014;-87
2022/09/01 04:39:13;;;;;;;;;;;;;;;14.13;100.00;98482.89;1701884;83;26987;-87
2022/09/01 04:41:41;;;;;;;;;;;;;;;14.07;100.00;98488.66;1691456;83;24456;-88
2022/09/01 04:44:07;;;;;;;;;;;;;;;14.03;100.00;98484.63;1698863;83;20335;-88
2022/09/01 04:46:36;;;;;;;;;;;;;;;14.11;100.00;98484.84;1696619;83;24965;-88
2022/09/01 04:49:08;;;;;;;;;;;;;;;14.22;100.00;98486.57;1702512;83;22008;-88
2022/09/01 04:51:38;;;;;;;;;;;;;;;14.35;100.00;98490.30;1700847;83;26705;-88
2022/09/01 04:54:18;;;;;;;;;;;;;;;14.37;100.00;98487.94;1694926;83;23912;-87
2022/09/01 04:56:48;;;;;;;;;;;;;;;14.31;100.00;98487.10;1683522;85;20216;-87
2022/09/01 04:59:14;;;;;;;;;;;;;;;14.24;100.00;98493.36;1651119;85;24856;-88
2022/09/01 05:01:48;;;;;;;;;;;;;;;14.19;100.00;98490.75;1700421;83;21941;-88
2022/09/01 05:04:32;;;;;;;;;;;;;;;14.14;100.00;98492.94;1695978;83;26017;-87
2022/09/01 05:07:00;;;;;;;;;;;;;;;14.11;100.00;98494.05;1699119;83;24439;-87
2022/09/01 05:09:28;;;;;;;;;;;;;;;14.11;100.00;98489.27;1699620;84;20187;-87
2022/09/01 05:11:57;;;;;;;;;;;;;;;14.10;100.00;98493.69;1700274;84;24310;-88
2022/09/01 05:14:29;;;;;;;;;;;;;;;14.11;100.00;98493.21;1700891;84;22634;-87
2022/09/01 05:17:09;;;;;;;;;;;;;;;14.13;100.00;98500.47;1700778;84;26028;-87
2022/09/01 05:19:49;;;;;;;;;;;;;;;14.19;100.00;98499.97;1701074;83;24467;-87
2022/09/01 05:22:18;;;;;;;;;;;;;;;14.24;100.00;98500.42;1699019;84;20313;-88
2022/09/01 05:24:46;;;;;;;;;;;;;;;14.25;100.00;98498.98;1696132;82;24794;-88
2022/09/01 05:27:14;;;;;;;;;;;;;;;14.31;100.00;98498.11;1701385;84;20927;-88
2022/09/01 05:29:40;;;;;;;;;;;;;;;14.33;100.00;98492.25;1697986;84;26137;-87
2022/09/01 05:32:08;;;;;;;;;;;;;;;14.34;100.00;98493.44;1701527;84;24404;-88
2022/09/01 05:34:38;;;;;;;;;;;;;;;14.36;100.00;98495.45;1698966;84;20223;-87
2022/09/01 05:37:07;;;;;;;;;;;;;;;14.40;100.00;98491.61;1698959;84;24971;-88
2022/09/01 05:39:36;;;;;;;;;;;;;;;14.39;100.00;98493.92;1698972;83;21985;-87
2022/09/01 05:42:11;;;;;;;;;;;;;;;14.49;100.00;98485.59;1701621;84;26050;-88
2022/09/01 05:44:43;;;;;;;;;;;;;;;14.53;100.00;98490.10;1702501;83;24440;-88
2022/09/01 05:47:11;;;;;;;;;;;;;;;14.53;100.00;98494.05;1701508;83;20410;-87
2022/09/01 05:49:39;;;;;;;;;;;;;;;14.47;100.00;98491.94;1703315;84;25821;-87
2022/09/01 05:52:08;;;;;;;;;;;;;;;14.40;100.00;98498.20;1701513;83;21989;-87
2022/09/01 05:54:33;;;;;;;;;;;;;;;14.42;100.00;98491.49;1699305;84;26223;-87
2022/09/01 05:57:00;;;;;;;;;;;;;;;14.49;100.00;98489.54;1700302;83;25314;-88
2022/09/01 05:59:26;;;;;;;;;;;;;;;14.48;100.00;98490.98;1700943;84;20461;-88
2022/09/01 06:02:01;;;;;;;;;;;;;;;14.53;100.00;98494.05;1674280;84;20898;-88
2022/09/01 06:04:29;;;;;;;;;;;;;;;14.55;100.00;98497.41;1701064;84;21979;-88
2022/09/01 06:06:58;;;;;;;;;;;;;;;14.55;100.00;98494.77;1705902;82;26815;-88
2022/09/01 06:09:26;;;;;;;;;;;;;;;14.54;100.00;98498.36;1713072;82;24391;-88
2022/09/01 06:11:55;;;;;;;;;;;;;;;14.57;100.00;98496.77;1708136;82;20224;-88
2022/09/01 06:14:20;;;;;;;;;;;;;;;14.57;100.00;98496.29;1720064;82;24880;-88
2022/09/01 06:16:53;;;;;;;;;;;;;;;14.64;100.00;98496.61;1717543;82;20323;-88
2022/09/01 06:19:24;;;;;;;;;;;;;;;14.64;100.00;98493.50;1710423;82;26044;-88
2022/09/01 06:21:50;;;;;;;;;;;;;;;14.73;100.00;98507.67;1719924;82;24628;-87
2022/09/01 06:24:17;;;;;;;;;;;;;;;14.79;100.00;98497.09;1714393;82;20460;-87
2022/09/01 06:26:45;;;;;;;;;;;;;;;14.79;100.00;98502.36;1713641;82;24737;-87
2022/09/01 06:29:14;;;;;;;;;;;;;;;14.73;100.00;98511.62;1712955;82;21954;-88
2022/09/01 06:31:39;;;;;;;;;;;;;;;14.73;100.00;98512.94;1719157;82;26028;-88
2022/09/01 06:34:08;;;;;;;;;;;;;;;14.72;100.00;98507.34;1712002;82;25298;-87
2022/09/01 06:36:36;;;;;;;;;;;;;;;14.72;100.00;98516.56;1711583;82;20541;-88
2022/09/01 06:39:04;;;;;;;;;;;;;;;14.71;100.00;98517.52;1715100;82;24877;-87
2022/09/01 06:41:30;;;;;;;;;;;;;;;14.71;100.00;98510.94;1688252;83;22028;-88
2022/09/01 06:44:00;;;;;;;;;;;;;;;14.71;100.00;98523.27;1712809;82;26120;-88
2022/09/01 06:46:28;;;;;;;;;;;;;;;14.71;100.00;98524.11;1714199;82;24634;-88
2022/09/01 06:48:57;;;;;;;;;;;;;;;14.73;100.00;98523.98;1714159;82;20283;-88
2022/09/01 06:51:25;;;;;;;;;;;;;;;14.74;100.00;98530.42;1710043;82;24788;-87
2022/09/01 06:53:55;;;;;;;;;;;;;;;14.74;100.00;98529.09;1712354;82;22032;-87
2022/09/01 06:56:19;;;;;;;;;;;;;;;14.74;100.00;98524.31;1709904;82;25959;-88
2022/09/01 06:58:47;;;;;;;;;;;;;;;14.76;100.00;98528.50;1709165;82;20307;-88
2022/09/01 07:01:16;;;;;;;;;;;;;;;14.81;100.00;98530.73;1711478;82;20354;-88
2022/09/01 07:03:50;;;;;;;;;;;;;;;14.80;100.00;98521.99;1712064;82;25593;-88
2022/09/01 07:06:17;;;;;;;;;;;;;;;14.88;100.00;98535.36;1707666;82;22827;-87
2022/09/01 07:08:54;;;;;;;;;;;;;;;14.94;100.00;98527.41;1701188;83;26030;-88
2022/09/01 07:11:22;;;;;;;;;;;;;;;14.97;100.00;98521.38;1697082;84;25301;-89
2022/09/01 07:13:57;;;;;;;;;;;;;;;15.01;100.00;98526.73;1693434;84;20143;-88
2022/09/01 07:16:21;;;;;;;;;;;;;;;15.03;100.00;98527.45;1703710;83;24897;-88
2022/09/01 07:18:50;;;;;;;;;;;;;;;15.10;100.00;98524.28;1701759;83;22768;-87
2022/09/01 07:21:18;;;;;;;;;;;;;;;15.15;100.00;98524.23;1692008;84;26942;-88
2022/09/01 07:23:45;;;;;;;;;;;;;;;15.23;100.00;98527.50;1692143;84;24548;-88
2022/09/01 07:26:16;;;;;;;;;;;;;;;15.26;100.00;98528.09;1698258;84;20243;-88
2022/09/01 07:28:39;;;;;;;;;;;;;;;15.34;100.00;98526.91;1702174;84;24782;-88
2022/09/01 07:31:19;;;;;;;;;;;;;;;15.40;100.00;98529.02;1700776;84;20829;-88
2022/09/01 07:33:50;;;;;;;;;;;;;;;15.42;100.00;98533.69;1678543;85;26141;-88
2022/09/01 07:36:17;;;;;;;;;;;;;;;15.39;100.00;98530.46;1699246;84;24458;-87
2022/09/01 07:38:44;;;;;;;;;;;;;;;15.40;100.00;98532.97;1698503;84;20507;-89
2022/09/01 07:41:13;;;;;;;;;;;;;;;15.46;100.00;98533.75;1701373;82;24762;-88
2022/09/01 07:43:51;;;;;;;;;;;;;;;15.50;100.00;98527.72;1697232;84;21880;-88
2022/09/01 07:46:22;;;;;;;;;;;;;;;15.55;100.00;98529.48;1698868;83;26605;-88
2022/09/01 07:48:58;;;;;;;;;;;;;;;15.61;100.00;98534.70;1674555;85;24452;-88
2022/09/01 07:51:27;;;;;;;;;;;;;;;15.68;100.00;98530.56;1702297;84;20480;-88
2022/09/01 07:53:53;;;;;;;;;;;;;;;15.77;100.00;98527.93;1691058;84;24854;-87
2022/09/01 07:56:21;;;;;;;;;;;;;;;15.84;100.00;98532.18;1688686;84;20274;-87
2022/09/01 07:58:49;;;;;;;;;;;;;;;15.89;100.00;98531.28;1698298;84;26159;-88
2022/09/01 08:01:20;;;;;;;;;;;;;;;16.00;100.00;98540.87;1701292;84;24465;-88
2022/09/01 08:03:48;;;;;;;;;;;;;;;16.08;100.00;98539.22;1692269;84;20330;-88
2022/09/01 08:06:23;;;;;;;;;;;;;;;16.13;100.00;98546.23;1697435;84;25584;-87
2022/09/01 08:08:51;;;;;;;;;;;;;;;16.19;100.00;98536.44;1717909;82;22247;-88
2022/09/01 08:11:25;;;;;;;;;;;;;;;16.25;100.00;98533.73;1721470;82;26021;-88
2022/09/01 08:13:57;;;;;;;;;;;;;;;16.31;100.00;98537.94;1727303;82;25210;-88
2022/09/01 08:16:26;;;;;;;;;;;;;;;16.36;100.00;98537.54;1721702;82;20233;-88
2022/09/01 08:18:55;;;;;;;;;;;;;;;16.43;100.00;98539.11;1721319;82;24896;-88
2022/09/01 08:21:24;;;;;;;;;;;;;;;16.48;100.00;98540.84;1717639;82;22108;-88
2022/09/01 08:24:11;;;;;;;;;;;;;;;16.56;100.00;98539.17;1721138;82;26692;-88
2022/09/01 08:26:35;;;;;;;;;;;;;;;16.60;100.00;98545.02;1724042;82;24383;-88
2022/09/01 08:29:07;;;;;;;;;;;;;;;16.62;100.00;98541.28;1721175;82;20252;-88
2022/09/01 08:31:34;;;;;;;;;;;;;;;16.70;100.00;98547.99;1720640;82;24751;-88
2022/09/01 08:34:04;;;;;;;;;;;;;;;16.77;100.00;98544.78;1720814;82;22861;-88
2022/09/01 08:36:28;;;;;;;;;;;;;;;16.84;100.00;98548.04;1724779;82;25977;-87
2022/09/01 08:38:54;;;;;;;;;;;;;;;16.91;100.00;98543.02;1720418;82;20859;-88
2022/09/01 08:41:26;;;;;;;;;;;;;;;16.98;100.00;98543.60;1713541;82;20232;-88
2022/09/01 08:44:14;;;;;;;;;;;;;;;17.05;100.00;98546.50;1728697;82;24894;-86
2022/09/01 08:46:42;;;;;;;;;;;;;;;17.07;100.00;98546.69;1723907;82;21941;-89
2022/09/01 08:49:22;;;;;;;;;;;;;;;17.10;100.00;98541.61;1721345;82;26880;-88
2022/09/01 08:52:06;;;;;;;;;;;;;;;17.15;100.00;98542.84;1720800;82;25122;-89
2022/09/01 08:54:55;;;;;;;;;;;;;;;17.15;100.00;98535.39;1731607;82;20234;-88
2022/09/01 08:57:39;;;;;;;;;;;;;;;17.22;100.00;98538.30;1719672;82;24741;-89
2022/09/01 09:00:09;;;;;;;;;;;;;;;17.33;100.00;98531.48;1721191;82;22047;-88
2022/09/01 09:02:53;;;;;;;;;;;;;;;17.42;100.00;98539.37;1721727;82;26104;-88
2022/09/01 09:05:42;;;;;;;;;;;;;;;17.46;100.00;98536.77;1721989;82;24592;-87
2022/09/01 09:08:21;;;;;;;;;;;;;;;17.54;100.00;98537.36;1719486;82;20244;-88
2022/09/01 09:10:52;;;;;;;;;;;;;;;17.56;100.00;98534.89;1721993;82;25700;-88
2022/09/01 09:13:37;;;;;;;;;;;;;;;17.56;100.00;98539.38;1722253;82;22084;-88
2022/09/01 09:18:49;;;;;;;;;;;;;;;17.66;100.00;98539.34;1722458;82;24436;-88
2022/09/01 09:21:37;;;;;;;;;;;;;;;17.72;100.00;98530.81;1719354;82;20375;-88
2022/09/01 09:24:24;;;;;;;;;;;;;;;17.79;100.00;98537.98;1706885;82;20489;-87
2022/09/01 09:26:52;;;;;;;;;;;;;;;17.85;100.00;98536.06;1721152;82;22014;-87
2022/09/01 09:29:26;;;;;;;;;;;;;;;17.97;100.00;98528.73;1728183;82;26658;-87
2022/09/01 09:32:05;;;;;;;;;;;;;;;18.01;100.00;98523.95;1723616;82;24499;-87
2022/09/01 09:34:33;;;;;;;;;;;;;;;18.10;100.00;98529.69;1725373;82;20254;-87
2022/09/01 09:37:20;;;;;;;;;;;;;;;18.13;100.00;98528.05;1727492;82;24861;-87
2022/09/01 09:40:08;;;;;;;;;;;;;;;18.19;100.00;98528.77;1722543;82;22971;-87
2022/09/01 09:42:38;;;;;;;;;;;;;;;18.29;100.00;98525.53;1731781;82;26238;-88
2022/09/01 09:45:04;;;;;;;;;;;;;;;18.40;100.00;98524.80;1729923;82;24440;-87
2022/09/01 09:47:35;;;;;;;;;;;;;;;18.51;100.00;98527.70;1707270;82;20358;-87
2022/09/01 09:50:09;;;;;;;;;;;;;;;18.55;100.00;98524.27;1723830;82;24947;-87
2022/09/01 09:52:35;;;;;;;;;;;;;;;18.69;100.00;98527.20;1727002;82;21470;-87
2022/09/01 09:55:03;;;;;;;;;;;;;;;18.77;100.00;98524.58;1724505;82;21058;-87
2022/09/01 09:57:29;;;;;;;;;;;;;;;18.75;100.00;98525.25;1725525;82;24693;-87
2022/09/01 10:00:00;;;;;;;;;;;;;;;18.70;100.00;98527.55;1728716;82;20293;-87
2022/09/01 10:02:30;;;;;;;;;;;;;;;18.75;100.00;98525.25;1723816;82;20214;-87
2022/09/01 10:04:56;;;;;;;;;;;;;;;18.68;100.00;98528.19;1719877;82;22129;-87
2022/09/01 10:07:24;;;;;;;;;;;;;;;18.64;100.00;98524.67;1729393;82;21026;-87
2022/09/01 10:09:51;;;;;;;;;;;;;;;18.63;100.00;98523.01;1725987;82;24469;-87
2022/09/01 10:12:28;;;;;;;;;;;;;;;18.64;100.00;98522.86;1687187;82;20182;-87
2022/09/01 10:14:56;;;;;;;;;;;;;;;18.63;100.00;98525.17;1713829;82;24501;-87
2022/09/01 10:17:24;;;;;;;;;;;;;;;18.53;100.00;98519.11;1712593;82;21965;-87
2022/09/01 10:19:55;;;;;;;;;;;;;;;18.50;100.00;98522.54;1714218;82;26177;-87
2022/09/01 10:22:22;;;;;;;;;;;;;;;18.54;100.00;98516.83;1717106;82;24440;-87
2022/09/01 10:24:48;;;;;;;;;;;;;;;18.62;100.00;98522.66;1712869;82;20528;-87
2022/09/01 10:27:21;;;;;;;;;;;;;;;18.64;100.00;98520.70;1718162;82;20879;-87
2022/09/01 10:29:50;;;;;;;;;;;;;;;18.60;100.00;98522.01;1717988;82;21938;-87
2022/09/01 10:32:19;;;;;;;;;;;;;;;18.57;100.00;98520.48;1716021;82;26648;-87
2022/09/01 10:34:52;;;;;;;;;;;;;;;18.59;100.00;98521.66;1716508;82;24456;-87
2022/09/01 10:37:22;;;;;;;;;;;;;;;18.55;100.00;98521.61;1714225;82;20378;-87
2022/09/01 10:40:06;;;;;;;;;;;;;;;18.48;100.00;98522.72;1713925;82;24862;-87
2022/09/01 10:42:33;;;;;;;;;;;;;;;18.42;100.00;98511.41;1717345;82;21931;-87
2022/09/01 10:45:07;;;;;;;;;;;;;;;18.45;100.00;98507.59;1715520;82;26021;-86
2022/09/01 10:47:36;;;;;;;;;;;;;;;18.56;100.00;98505.56;1721945;82;24438;-87
2022/09/01 10:50:08;;;;;;;;;;;;;;;18.73;100.00;98511.31;1714856;82;20169;-87
2022/09/01 10:52:41;;;;;;;;;;;;;;;18.82;100.00;98508.72;1718529;82;25110;-86
2022/09/01 10:55:24;;;;;;;;;;;;;;;18.93;100.00;98505.80;1717358;82;21407;-87
2022/09/01 10:57:54;;;;;;;;;;;;;;;18.99;100.00;98508.63;1712818;82;26094;-89
2022/09/01 11:00:42;;;;;;;;;;;;;;;19.11;100.00;98514.00;1716516;82;24142;-88
2022/09/01 11:03:14;;;;;;;;;;;;;;;19.15;100.00;98517.16;1714518;82;20222;-89
2022/09/01 11:05:59;;;;;;;;;;;;;;;19.12;100.00;98513.51;1718199;82;25410;-88
2022/09/01 11:08:33;;;;;;;;;;;;;;;19.14;100.00;98513.70;1717110;82;21399;-89
2022/09/01 11:11:13;;;;;;;;;;;;;;;19.14;100.00;98519.50;1724854;82;26161;-88
2022/09/01 11:13:42;;;;;;;;;;;;;;;19.08;100.00;98509.52;1720983;82;24521;-89
2022/09/01 11:16:28;;;;;;;;;;;;;;;19.04;100.00;98510.80;1718448;82;20218;-88
2022/09/01 11:18:56;;;;;;;;;;;;;;;19.12;100.00;98517.48;1727192;82;24760;-88
2022/09/01 11:21:26;;;;;;;;;;;;;;;19.16;100.00;98507.72;1722249;82;22070;-88
2022/09/01 11:23:54;;;;;;;;;;;;;;;19.26;100.00;98510.73;1722527;82;26000;-89
2022/09/01 11:26:38;;;;;;;;;;;;;;;19.32;100.00;98500.31;1704031;83;24681;-88
2022/09/01 11:29:14;;;;;;;;;;;;;;;19.43;100.00;98501.84;1715202;82;20227;-89
2022/09/01 11:31:42;;;;;;;;;;;;;;;19.61;100.00;98493.30;1642721;85;24929;-88
2022/09/01 11:34:12;;;;;;;;;;;;;;;19.64;99.58;98499.60;1706179;82;22181;-88
2022/09/01 11:36:57;;;;;;;;;;;;;;;19.57;97.97;98499.94;1722599;82;26011;-89
2022/09/01 11:39:28;;;;;;;;;;;;;;;19.55;96.73;98496.11;1718865;82;24432;-88
2022/09/01 11:42:00;;;;;;;;;;;;;;;19.69;96.55;98503.12;1724340;82;20258;-88
2022/09/01 11:44:44;;;;;;;;;;;;;;;19.69;95.68;98492.02;1722611;82;24759;-88
2022/09/01 11:47:15;;;;;;;;;;;;;;;19.74;95.22;98492.35;1721745;82;22004;-88
2022/09/01 11:49:42;;;;;;;;;;;;;;;19.87;94.99;98493.17;1723305;82;26049;-88
2022/09/01 11:52:09;;;;;;;;;;;;;;;20.11;95.67;98493.70;1725016;82;24380;-88
2022/09/01 11:54:37;;;;;;;;;;;;;;;20.25;95.70;98495.69;1721105;82;20229;-88
2022/09/01 11:57:31;;;;;;;;;;;;;;;20.18;94.79;98496.04;1722226;82;25788;-88
2022/09/01 11:59:58;;;;;;;;;;;;;;;20.10;94.26;98496.02;1722347;82;22078;-88
2022/09/01 12:02:32;;;;;;;;;;;;;;;20.10;94.02;98499.52;1722592;82;26738;-89
2022/09/01 12:04:59;;;;;;;;;;;;;;;20.00;93.31;98498.36;1720301;82;24548;-89
2022/09/01 12:07:30;;;;;;;;;;;;;;;19.89;91.48;98492.53;1722925;82;20377;-88
2022/09/01 12:09:56;;;;;;;;;;;;;;;19.84;90.23;98494.84;1713981;82;24833;-88
2022/09/01 12:12:42;;;;;;;;;;;;;;;19.73;88.76;98494.66;1713303;82;22158;-88
2022/09/01 12:15:10;;;;;;;;;;;;;;;19.62;87.63;98491.83;1711902;82;25974;-88
2022/09/01 12:17:36;;;;;;;;;;;;;;;19.53;86.83;98487.47;1712692;82;24404;-88
2022/09/01 12:20:20;;;;;;;;;;;;;;;19.43;86.05;98492.05;1714306;82;20211;-88
2022/09/01 12:22:46;;;;;;;;;;;;;;;19.39;85.74;98491.22;1711044;82;24796;-88
2022/09/01 12:25:23;;;;;;;;;;;;;;;19.33;85.24;98490.53;1711253;82;22039;-88
2022/09/01 12:27:59;;;;;;;;;;;;;;;19.29;85.12;98482.08;1708231;82;26050;-88
2022/09/01 12:30:25;;;;;;;;;;;;;;;19.31;85.10;98485.38;1714597;82;24054;-89
2022/09/01 12:32:54;;;;;;;;;;;;;;;19.36;85.42;98486.25;1714176;82;20793;-88
2022/09/01 12:35:32;;;;;;;;;;;;;;;19.46;86.00;98475.86;1710655;82;24787;-88
2022/09/01 12:38:16;;;;;;;;;;;;;;;19.59;86.64;98480.19;1712105;82;21906;-88
2022/09/01 12:40:44;;;;;;;;;;;;;;;19.67;86.91;98483.36;1713277;82;25955;-88
2022/09/01 12:43:10;;;;;;;;;;;;;;;19.56;86.01;98481.02;1710265;82;24448;-88
2022/09/01 12:45:37;;;;;;;;;;;;;;;19.43;85.12;98491.22;1716716;82;20922;-88
2022/09/01 12:48:03;;;;;;;;;;;;;;;19.36;84.47;98492.39;1711964;82;24657;-87
2022/09/01 12:50:31;;;;;;;;;;;;;;;19.40;84.43;98487.09;1713592;82;22060;-88
2022/09/01 12:52:59;;;;;;;;;;;;;;;19.52;84.59;98483.67;1712230;82;26139;-87
2022/09/01 12:55:30;;;;;;;;;;;;;;;19.70;85.16;98479.05;1712053;82;24543;-88
2022/09/01 12:57:58;;;;;;;;;;;;;;;19.87;85.56;98485.20;1711544;82;20503;-88
2022/09/01 13:00:25;;;;;;;;;;;;;;;19.95;85.55;98482.58;1715320;82;24678;-87
2022/09/01 13:02:56;;;;;;;;;;;;;;;19.82;84.46;98486.20;1713042;82;23039;-88
2022/09/01 13:05:32;;;;;;;;;;;;;;;19.66;83.15;98481.70;1688707;82;22123;-88